Time;durP1;ratioP1;P1;durP2;ratioP2;P2;SDS_P1;SDS_P2;PMS_P1;PMS_P2;Temp;Humidity;BMP_temperature;BMP_pressure;BME280_temperature;BME280_humidity;BME280_pressure;Samples;Min_cycle;Max_cycle;Signal;HPM_P1;HPM_P2
2022/07/12 00:00:13;;;;;;;6.00;1.90;;;;;;;12.12;100.00;100177.25;104924;1271;61672;-68
2022/07/12 00:03:05;;;;;;;8.50;1.80;;;;;;;12.11;100.00;100176.05;105092;1271;72976;-70
2022/07/12 00:05:56;;;;;;;6.50;2.20;;;;;;;12.09;100.00;100172.61;104790;1271;68443;-70
2022/07/12 00:08:44;;;;;;;6.20;2.10;;;;;;;12.10;100.00;100169.75;104970;1271;72268;-71
2022/07/12 00:11:35;;;;;;;7.60;2.00;;;;;;;12.10;100.00;100168.27;105039;1271;60587;-71
2022/07/12 00:14:23;;;;;;;6.30;2.20;;;;;;;12.10;100.00;100168.11;105014;1271;60794;-70
2022/07/12 00:17:11;;;;;;;6.60;2.30;;;;;;;12.10;100.00;100166.71;104991;1271;75871;-71
2022/07/12 00:20:00;;;;;;;7.00;2.20;;;;;;;12.12;100.00;100167.66;105122;1271;68657;-70
2022/07/12 00:22:48;;;;;;;6.20;2.40;;;;;;;12.12;100.00;100171.15;104884;1271;73543;-71
2022/07/12 00:25:39;;;;;;;7.30;2.20;;;;;;;12.13;100.00;100167.34;105021;1271;60535;-72
2022/07/12 00:28:27;;;;;;;6.30;2.10;;;;;;;12.13;100.00;100173.40;105188;1271;60469;-71
2022/07/12 00:31:16;;;;;;;6.90;2.30;;;;;;;12.13;100.00;100172.35;104954;1271;75918;-71
2022/07/12 00:34:04;;;;;;;7.80;2.30;;;;;;;12.13;100.00;100173.73;104853;1271;68133;-70
2022/07/12 00:36:52;;;;;;;6.40;2.40;;;;;;;12.13;100.00;100170.57;104761;1271;73087;-71
2022/07/12 00:39:40;;;;;;;8.50;2.30;;;;;;;12.13;100.00;100168.98;105246;1271;61330;-69
2022/07/12 00:42:28;;;;;;;9.70;2.50;;;;;;;12.14;100.00;100164.98;104965;1271;60447;-70
2022/07/12 00:45:16;;;;;;;6.50;2.10;;;;;;;12.14;100.00;100162.63;104951;1271;73122;-68
2022/07/12 00:48:05;;;;;;;6.30;1.90;;;;;;;12.16;100.00;100162.51;105073;1271;69621;-71
2022/07/12 00:50:53;;;;;;;6.10;2.30;;;;;;;12.16;100.00;100163.58;104813;1271;73220;-69
2022/07/12 00:53:41;;;;;;;7.50;2.20;;;;;;;12.17;100.00;100168.98;104957;1271;60918;-73
2022/07/12 00:56:29;;;;;;;7.30;2.30;;;;;;;12.17;100.00;100171.61;104887;1271;60336;-70
2022/07/12 00:59:17;;;;;;;8.30;2.80;;;;;;;12.20;100.00;100176.41;104947;1271;73294;-69
2022/07/12 01:02:06;;;;;;;7.10;2.10;;;;;;;12.22;100.00;100175.67;105065;1271;66638;-73
2022/07/12 01:04:55;;;;;;;6.00;2.10;;;;;;;12.24;100.00;100170.88;105053;1271;72522;-74
2022/07/12 01:07:44;;;;;;;6.10;2.20;;;;;;;12.26;100.00;100169.84;105046;1273;60501;-73
2022/07/12 01:10:36;;;;;;;6.20;2.20;;;;;;;12.25;100.00;100169.52;104833;1271;60440;-70
2022/07/12 01:13:25;;;;;;;6.90;2.10;;;;;;;12.23;100.00;100169.73;104939;1273;74754;-70
2022/07/12 01:16:14;;;;;;;7.70;2.40;;;;;;;12.22;100.00;100168.36;104908;1271;69399;-69
2022/07/12 01:19:06;;;;;;;7.40;2.30;;;;;;;12.19;100.00;100163.63;104916;1271;73401;-70
2022/07/12 01:21:57;;;;;;;7.30;2.40;;;;;;;12.17;100.00;100164.52;104940;1271;60408;-69
2022/07/12 01:24:45;;;;;;;6.10;1.80;;;;;;;12.16;100.00;100166.42;104873;1271;61851;-69
2022/07/12 01:27:34;;;;;;;6.30;2.30;;;;;;;12.14;100.00;100163.91;105063;1271;74175;-66
2022/07/12 01:30:23;;;;;;;7.30;2.60;;;;;;;12.14;100.00;100167.48;104841;1271;69050;-66
2022/07/12 01:33:12;;;;;;;7.00;2.60;;;;;;;12.15;100.00;100169.32;104914;1271;71299;-67
2022/07/12 01:36:00;;;;;;;5.70;2.50;;;;;;;12.15;100.00;100165.25;104768;1271;60513;-70
2022/07/12 01:38:48;;;;;;;7.60;2.30;;;;;;;12.14;100.00;100164.23;105134;1272;60584;-69
2022/07/12 01:41:37;;;;;;;7.00;2.50;;;;;;;12.15;100.00;100164.73;105097;1271;73040;-67
2022/07/12 01:44:25;;;;;;;7.20;2.40;;;;;;;12.14;100.00;100161.02;104958;1271;69166;-71
2022/07/12 01:47:13;;;;;;;6.40;2.40;;;;;;;12.14;100.00;100158.74;104947;1271;73240;-72
2022/07/12 01:50:05;;;;;;;7.00;2.30;;;;;;;12.14;100.00;100153.27;105153;1271;60475;-70
2022/07/12 01:52:54;;;;;;;6.10;2.70;;;;;;;12.13;100.00;100160.23;105333;1271;60525;-71
2022/07/12 01:55:43;;;;;;;7.00;2.80;;;;;;;12.14;100.00;100157.14;105033;1271;75049;-72
2022/07/12 01:58:31;;;;;;;7.40;2.30;;;;;;;12.16;100.00;100155.20;104883;1271;69183;-71
2022/07/12 02:01:20;;;;;;;7.90;2.50;;;;;;;12.16;100.00;100153.08;104784;1271;73259;-70
2022/07/12 02:04:08;;;;;;;6.00;2.10;;;;;;;12.14;100.00;100156.55;104828;1271;60580;-71
2022/07/12 02:06:57;;;;;;;6.40;2.20;;;;;;;12.11;100.00;100155.41;105066;1271;61342;-69
2022/07/12 02:09:45;;;;;;;6.40;2.40;;;;;;;12.09;100.00;100156.66;104902;1271;74314;-72
2022/07/12 02:12:35;;;;;;;5.90;2.50;;;;;;;12.06;100.00;100158.71;105001;1271;68807;-72
2022/07/12 02:15:23;;;;;;;6.70;2.50;;;;;;;12.04;100.00;100152.09;104989;1271;73766;-70
2022/07/12 02:18:11;;;;;;;6.20;2.10;;;;;;;12.02;100.00;100151.88;104869;1272;60425;-73
2022/07/12 02:21:00;;;;;;;7.00;2.50;;;;;;;12.00;100.00;100146.95;104888;1271;61945;-71
2022/07/12 02:23:48;;;;;;;6.00;2.30;;;;;;;11.98;100.00;100145.67;104924;1271;74561;-70
2022/07/12 02:26:36;;;;;;;7.00;2.50;;;;;;;11.94;100.00;100146.11;105168;1271;69222;-70
2022/07/12 02:29:24;;;;;;;7.90;2.50;;;;;;;11.92;100.00;100144.62;104913;1271;72499;-70
2022/07/12 02:32:13;;;;;;;7.10;2.60;;;;;;;11.90;100.00;100142.36;104939;1271;60415;-69
2022/07/12 02:35:01;;;;;;;8.30;2.60;;;;;;;11.87;100.00;100142.02;104901;1271;61051;-72
2022/07/12 02:37:50;;;;;;;7.40;2.80;;;;;;;11.87;100.00;100144.77;105080;1271;75397;-72
2022/07/12 02:40:53;;;;;;;7.30;2.40;;;;;;;11.85;100.00;100133.52;104932;1271;66911;-70
2022/07/12 02:43:41;;;;;;;6.50;2.70;;;;;;;11.85;100.00;100134.06;105221;1271;73549;-71
2022/07/12 02:46:29;;;;;;;7.00;2.70;;;;;;;11.85;100.00;100134.55;104958;1271;60575;-71
2022/07/12 02:49:17;;;;;;;7.80;2.70;;;;;;;11.85;100.00;100137.06;105158;1271;60489;-71
2022/07/12 02:52:06;;;;;;;6.30;2.60;;;;;;;11.86;100.00;100138.08;104817;1271;74671;-70
2022/07/12 02:54:54;;;;;;;6.00;2.50;;;;;;;11.87;100.00;100140.11;104871;1271;68422;-71
2022/07/12 02:57:42;;;;;;;6.70;2.60;;;;;;;11.88;100.00;100139.68;104814;1274;73735;-74
2022/07/12 03:00:30;;;;;;;7.60;2.80;;;;;;;11.89;100.00;100138.16;104893;1271;60490;-70
2022/07/12 03:03:17;;;;;;;6.70;2.50;;;;;;;11.90;100.00;100135.70;105044;1271;60400;-73
2022/07/12 03:06:06;;;;;;;9.30;3.10;;;;;;;11.91;100.00;100129.99;104895;1271;75385;-68
2022/07/12 03:08:57;;;;;;;7.10;2.30;;;;;;;11.92;100.00;100130.79;104920;1271;67620;-72
2022/07/12 03:11:46;;;;;;;6.60;2.90;;;;;;;11.93;100.00;100124.50;105082;1271;74471;-73
2022/07/12 03:14:34;;;;;;;7.20;2.80;;;;;;;11.95;100.00;100128.49;105215;1271;61562;-71
2022/07/12 03:17:22;;;;;;;8.40;2.30;;;;;;;11.98;100.00;100128.98;105327;1271;62384;-73
2022/07/12 03:20:14;;;;;;;6.80;2.60;;;;;;;12.01;100.00;100129.05;105259;1271;74900;-71
2022/07/12 03:23:02;;;;;;;8.30;2.80;;;;;;;12.05;100.00;100123.91;105012;1271;69769;-71
2022/07/12 03:25:49;;;;;;;8.70;3.00;;;;;;;12.08;100.00;100129.56;104821;1271;73186;-74
2022/07/12 03:28:37;;;;;;;8.00;3.00;;;;;;;12.12;100.00;100128.67;106219;1271;60451;-70
2022/07/12 03:31:25;;;;;;;8.30;2.60;;;;;;;12.15;100.00;100131.94;105006;1271;60318;-74
2022/07/12 03:34:13;;;;;;;7.20;2.20;;;;;;;12.19;100.00;100130.94;105145;1271;75724;-73
2022/07/12 03:37:02;;;;;;;7.30;2.80;;;;;;;12.23;100.00;100128.77;105009;1271;68317;-72
2022/07/12 03:39:50;;;;;;;6.30;2.40;;;;;;;12.28;100.00;100126.44;104842;1271;72481;-74
2022/07/12 03:42:38;;;;;;;6.40;2.50;;;;;;;12.34;100.00;100130.23;104724;1271;60673;-73
2022/07/12 03:45:26;;;;;;;7.00;2.10;;;;;;;12.39;100.00;100131.20;104781;1271;61719;-73
2022/07/12 03:48:15;;;;;;;5.90;2.20;;;;;;;12.44;100.00;100131.52;105314;1271;72690;-75
2022/07/12 03:51:03;;;;;;;6.00;1.90;;;;;;;12.50;100.00;100130.66;105089;1271;67066;-73
2022/07/12 03:53:51;;;;;;;8.00;2.20;;;;;;;12.56;100.00;100130.86;105062;1271;73119;-75
2022/07/12 03:59:46;;;;;;;7.50;2.20;;;;;;;12.69;100.00;100135.84;105173;1271;60501;-74
2022/07/12 04:02:34;;;;;;;6.80;2.20;;;;;;;12.76;100.00;100133.59;104880;1271;75805;-72
2022/07/12 04:05:26;;;;;;;5.10;1.80;;;;;;;12.82;100.00;100128.83;105774;1271;69075;-72
2022/07/12 04:08:15;;;;;;;8.00;1.90;;;;;;;12.89;100.00;100128.40;104964;1271;72271;-73
2022/07/12 04:11:06;;;;;;;7.10;1.80;;;;;;;12.97;100.00;100127.71;105016;1271;60517;-72
2022/07/12 04:13:54;;;;;;;5.50;1.80;;;;;;;13.04;100.00;100122.27;105139;1273;60507;-72
2022/07/12 04:16:42;;;;;;;7.00;1.70;;;;;;;13.12;100.00;100109.34;104783;1273;75292;-73
2022/07/12 04:19:32;;;;;;;6.30;1.80;;;;;;;13.21;100.00;100111.05;105115;1273;67410;-75
2022/07/12 04:22:20;;;;;;;6.50;2.00;;;;;;;13.29;100.00;100109.58;104983;1273;72789;-74
2022/07/12 04:25:11;;;;;;;5.40;1.60;;;;;;;13.39;100.00;100107.48;104504;1276;60542;-77
2022/07/12 04:27:59;;;;;;;6.50;1.90;;;;;;;13.50;100.00;100105.33;104824;1274;60469;-73
2022/07/12 04:30:48;;;;;;;5.90;1.50;;;;;;;13.61;100.00;100101.98;104767;1273;75938;-73
2022/07/12 04:33:36;;;;;;;5.20;1.60;;;;;;;13.74;100.00;100101.36;104712;1273;69674;-75
2022/07/12 04:36:24;;;;;;;5.90;1.80;;;;;;;13.91;100.00;100106.81;104724;1274;73512;-71
2022/07/12 04:39:12;;;;;;;5.90;1.90;;;;;;;14.13;100.00;100103.38;104756;1274;60318;-72
2022/07/12 04:42:01;;;;;;;7.30;1.80;;;;;;;14.38;100.00;100100.02;104893;1274;61297;-73
2022/07/12 04:44:50;;;;;;;5.60;1.60;;;;;;;14.70;100.00;100098.05;104739;1274;74440;-74
2022/07/12 04:47:38;;;;;;;5.90;1.60;;;;;;;15.11;100.00;100099.54;104764;1273;69557;-74
2022/07/12 04:50:27;;;;;;;6.10;1.50;;;;;;;15.62;99.12;100097.48;104833;1274;74272;-72
2022/07/12 04:53:15;;;;;;;5.70;1.40;;;;;;;16.29;96.75;100101.45;104707;1273;60650;-74
2022/07/12 04:56:04;;;;;;;5.10;1.30;;;;;;;17.06;92.71;100098.91;104933;1273;60462;-73
2022/07/12 04:58:52;;;;;;;5.40;1.40;;;;;;;17.77;86.48;100085.20;105153;1274;74615;-72
2022/07/12 05:01:46;;;;;;;5.80;1.10;;;;;;;18.50;83.53;100086.45;104870;1274;68108;-71
2022/07/12 05:04:35;;;;;;;4.90;1.30;;;;;;;19.21;80.45;100087.56;104990;1273;72965;-74
2022/07/12 05:07:23;;;;;;;6.10;1.30;;;;;;;19.88;76.02;100079.65;105021;1274;60572;-76
2022/07/12 05:10:11;;;;;;;4.90;1.20;;;;;;;20.57;72.37;100081.48;105123;1273;60556;-74
2022/07/12 05:12:59;;;;;;;6.60;1.00;;;;;;;21.12;68.24;100084.04;104900;1274;75514;-75
2022/07/12 05:15:47;;;;;;;5.50;1.20;;;;;;;21.64;66.04;100072.48;104781;1274;69385;-74
2022/07/12 05:18:36;;;;;;;5.40;1.10;;;;;;;22.24;63.36;100080.51;105181;1273;74580;-77
2022/07/12 05:21:24;;;;;;;5.40;1.40;;;;;;;22.78;60.92;100076.16;105546;1273;60462;-68
2022/07/12 05:24:12;;;;;;;4.30;1.10;;;;;;;23.05;58.79;100081.48;104699;1274;60630;-67
2022/07/12 05:27:00;;;;;;;3.90;1.00;;;;;;;23.16;57.37;100082.73;104984;1274;73876;-68
2022/07/12 05:29:48;;;;;;;6.10;0.90;;;;;;;23.34;56.72;100079.85;104824;1274;66827;-66
2022/07/12 05:32:36;;;;;;;4.50;1.10;;;;;;;23.75;57.06;100078.48;104776;1274;73998;-73
2022/07/12 05:35:24;;;;;;;4.60;1.00;;;;;;;24.15;55.07;100073.00;105104;1273;61385;-66
2022/07/12 05:38:12;;;;;;;3.30;0.80;;;;;;;24.36;53.71;100076.65;104748;1274;60547;-66
2022/07/12 05:41:00;;;;;;;4.00;0.80;;;;;;;24.69;53.10;100075.34;104750;1273;74705;-67
2022/07/12 05:43:48;;;;;;;5.10;0.80;;;;;;;24.89;51.83;100074.63;104752;1273;68183;-65
2022/07/12 05:46:40;;;;;;;4.30;0.80;;;;;;;24.67;52.32;100075.80;104760;1273;74200;-64
2022/07/12 05:49:29;;;;;;;3.80;0.80;;;;;;;24.43;52.12;100075.48;105018;1273;60923;-65
2022/07/12 05:55:24;;;;;;;4.10;0.80;;;;;;;24.35;52.10;100079.19;104965;1273;74421;-66
2022/07/12 05:58:12;;;;;;;4.90;0.90;;;;;;;24.18;52.48;100075.76;104834;1273;68366;-65
2022/07/12 06:01:00;;;;;;;3.80;0.80;;;;;;;24.61;51.32;100077.56;104743;1273;74653;-63
2022/07/12 06:03:48;;;;;;;5.90;1.30;;;;;;;24.97;50.53;100075.70;104951;1273;60360;-67
2022/07/12 06:06:36;;;;;;;4.70;0.80;;;;;;;25.29;50.10;100073.16;104938;1273;62182;-67
2022/07/12 06:09:24;;;;;;;4.70;1.00;;;;;;;25.70;49.50;100065.55;104887;1273;75327;-66
2022/07/12 06:12:12;;;;;;;4.30;0.80;;;;;;;26.30;47.93;100063.80;105003;1273;69453;-76
2022/07/12 06:15:02;;;;;;;4.80;0.90;;;;;;;27.22;44.50;100059.27;105111;1273;74469;-78
2022/07/12 06:17:50;;;;;;;4.10;0.80;;;;;;;27.70;42.59;100055.11;105089;1273;60428;-75
2022/07/12 06:20:38;;;;;;;4.50;1.00;;;;;;;27.31;43.42;100054.69;105025;1273;60574;-74
2022/07/12 06:23:26;;;;;;;4.30;0.70;;;;;;;27.06;43.80;100055.33;104967;1274;74106;-76
2022/07/12 06:26:14;;;;;;;5.00;0.90;;;;;;;26.72;44.12;100056.48;105024;1274;69813;-75
2022/07/12 06:29:02;;;;;;;5.10;0.80;;;;;;;26.84;43.62;100057.97;104984;1273;72752;-73
2022/07/12 06:31:50;;;;;;;4.00;0.70;;;;;;;27.55;41.95;100050.77;104994;1273;60502;-76
2022/07/12 06:34:38;;;;;;;4.20;0.80;;;;;;;27.27;42.46;100052.73;105024;1274;60664;-75
2022/07/12 06:37:26;;;;;;;6.60;0.80;;;;;;;27.75;41.11;100053.56;104964;1273;74297;-75
2022/07/12 06:40:16;;;;;;;4.20;0.80;;;;;;;27.80;41.46;100057.44;105002;1273;68031;-73
2022/07/12 06:43:11;;;;;;;4.50;0.70;;;;;;;28.36;39.64;100056.95;105003;1272;71563;-75
2022/07/12 06:46:00;;;;;;;4.20;0.80;;;;;;;29.24;38.19;100056.30;105128;1271;60498;-76
2022/07/12 06:48:48;;;;;;;4.00;0.80;;;;;;;30.37;36.43;100050.92;105068;1271;60361;-76
2022/07/12 06:51:39;;;;;;;3.20;0.60;;;;;;;31.42;34.47;100046.06;105117;1271;73946;-78
2022/07/12 06:54:27;;;;;;;3.20;0.60;;;;;;;31.97;32.36;100045.70;105175;1272;68038;-78
2022/07/12 06:57:14;;;;;;;3.50;0.60;;;;;;;32.12;31.87;100052.65;105136;1271;71550;-74
2022/07/12 07:00:06;;;;;;;2.60;0.50;;;;;;;32.15;31.15;100052.77;105307;1271;60497;-80
2022/07/12 07:02:54;;;;;;;3.30;0.50;;;;;;;30.99;32.29;100052.36;105099;1271;60787;-76
2022/07/12 07:05:43;;;;;;;3.10;0.50;;;;;;;29.95;34.51;100053.30;105189;1271;73065;-75
2022/07/12 07:08:31;;;;;;;4.40;0.50;;;;;;;29.31;35.05;100058.86;105262;1271;68395;-75
2022/07/12 07:11:19;;;;;;;4.40;0.80;;;;;;;28.86;35.78;100063.04;105393;1271;73933;-78
2022/07/12 07:14:07;;;;;;;4.20;0.90;;;;;;;29.06;34.97;100062.48;105543;1271;60433;-74
2022/07/12 07:16:56;;;;;;;4.20;0.70;;;;;;;29.02;34.89;100059.15;105105;1271;60997;-77
2022/07/12 07:19:44;;;;;;;4.30;1.00;;;;;;;30.15;32.68;100054.99;105293;1271;72845;-76
2022/07/12 07:22:32;;;;;;;6.20;2.50;;;;;;;31.16;31.22;100049.22;105272;1271;68101;-76
2022/07/12 07:25:20;;;;;;;4.20;1.20;;;;;;;32.18;29.83;100050.38;105114;1271;70684;-77
2022/07/12 07:28:08;;;;;;;7.40;3.70;;;;;;;33.07;28.41;100052.10;105098;1272;60567;-76
2022/07/12 07:30:58;;;;;;;3.70;0.80;;;;;;;33.76;27.14;100051.27;105134;1271;61844;-76
2022/07/12 07:33:47;;;;;;;4.70;1.30;;;;;;;34.22;26.76;100050.46;105430;1271;76058;-71
2022/07/12 07:36:35;;;;;;;3.50;0.60;;;;;;;34.35;26.13;100046.31;105020;1271;68042;-76
2022/07/12 07:39:23;;;;;;;2.60;0.40;;;;;;;33.62;25.74;100053.15;104863;1271;73095;-73
2022/07/12 07:42:11;;;;;;;4.00;0.60;;;;;;;32.79;26.99;100049.87;104817;1271;60498;-73
2022/07/12 07:44:59;;;;;;;4.60;1.00;;;;;;;31.84;28.20;100052.60;104987;1272;60403;-72
2022/07/12 07:48:06;;;;;;;4.30;0.70;;;;;;;31.45;28.56;100051.38;104835;1271;75437;-73
2022/07/12 07:51:12;;;;;;;3.30;0.70;;;;;;;31.36;28.52;100047.86;105055;1271;67584;-73
2022/07/12 07:54:02;;;;;;;4.50;0.70;;;;;;;30.95;28.16;100049.45;104965;1271;74366;-74
2022/07/12 07:56:50;;;;;;;3.00;0.50;;;;;;;31.45;27.76;100046.31;105032;1271;60463;-73
2022/07/12 07:59:38;;;;;;;3.10;0.60;;;;;;;31.79;27.72;100047.63;105181;1271;60467;-76
2022/07/12 08:02:26;;;;;;;3.70;0.70;;;;;;;32.57;27.03;100042.70;104858;1271;75525;-72
2022/07/12 08:05:15;;;;;;;4.60;0.60;;;;;;;33.38;26.77;100044.29;104859;1271;66735;-74
2022/07/12 08:08:04;;;;;;;3.90;0.60;;;;;;;33.56;25.98;100042.67;105012;1271;73619;-74
2022/07/12 08:10:52;;;;;;;3.60;0.50;;;;;;;33.62;25.26;100039.83;104952;1271;60450;-72
2022/07/12 08:13:40;;;;;;;3.20;0.60;;;;;;;32.99;26.08;100038.84;104890;1271;60444;-72
2022/07/12 08:16:28;;;;;;;3.90;0.60;;;;;;;33.73;25.59;100047.79;105076;1271;74620;-70
2022/07/12 08:19:16;;;;;;;3.40;0.60;;;;;;;34.21;24.40;100036.66;105445;1271;68706;-72
2022/07/12 08:22:04;;;;;;;5.00;0.50;;;;;;;33.77;25.10;100041.34;105099;1271;72985;-73
2022/07/12 08:24:52;;;;;;;2.50;0.40;;;;;;;32.33;25.67;100036.43;105091;1271;60466;-73
2022/07/12 08:27:41;;;;;;;3.80;0.70;;;;;;;31.27;27.04;100039.75;104958;1271;61655;-74
2022/07/12 08:30:29;;;;;;;3.90;0.70;;;;;;;31.48;27.59;100039.27;105531;1271;75358;-70
2022/07/12 08:33:17;;;;;;;3.80;0.80;;;;;;;31.49;26.99;100036.20;105233;1272;67879;-73
2022/07/12 08:36:06;;;;;;;4.50;0.80;;;;;;;31.30;27.24;100039.89;105374;1271;72380;-76
2022/07/12 08:38:55;;;;;;;3.10;0.60;;;;;;;32.08;26.53;100036.39;104917;1271;60792;-76
2022/07/12 08:41:43;;;;;;;4.60;1.10;;;;;;;32.59;26.12;100041.70;105090;1271;61881;-77
2022/07/12 08:44:31;;;;;;;5.10;1.10;;;;;;;33.04;24.77;100041.39;105198;1271;72793;-73
2022/07/12 08:47:19;;;;;;;3.60;0.80;;;;;;;33.23;24.34;100039.38;104871;1271;69007;-74
2022/07/12 08:50:12;;;;;;;4.90;0.70;;;;;;;33.54;24.63;100034.46;104871;1271;74558;-73
2022/07/12 08:53:00;;;;;;;3.00;0.60;;;;;;;33.57;24.69;100029.05;104773;1271;60596;-72
2022/07/12 08:55:49;;;;;;;2.90;0.50;;;;;;;33.48;25.08;100031.14;105282;1271;60441;-77
2022/07/12 08:58:37;;;;;;;5.30;1.60;;;;;;;32.88;25.60;100027.94;104940;1271;75564;-74
2022/07/12 09:01:50;;;;;;;5.40;0.90;;;;;;;32.33;25.53;100028.88;105123;1271;68527;-72
2022/07/12 09:04:38;;;;;;;4.50;0.90;;;;;;;32.32;25.41;100020.61;104937;1271;73625;-74
2022/07/12 09:07:26;;;;;;;4.30;0.60;;;;;;;32.54;25.59;100022.77;105065;1271;60474;-74
2022/07/12 09:10:17;;;;;;;2.90;0.50;;;;;;;32.90;25.04;100022.16;105233;1271;60550;-73
2022/07/12 09:13:05;;;;;;;4.30;0.60;;;;;;;32.58;25.71;100013.61;104967;1271;75558;-72
2022/07/12 09:15:53;;;;;;;3.50;0.70;;;;;;;32.65;25.53;100024.48;104826;1271;69394;-74
2022/07/12 09:18:44;;;;;;;3.80;0.60;;;;;;;32.63;25.11;100016.56;104859;1271;74215;-71
2022/07/12 09:21:32;;;;;;;5.40;0.70;;;;;;;32.42;25.13;100012.67;104950;1272;60482;-74
2022/07/12 09:24:26;;;;;;;3.90;1.20;;;;;;;32.08;24.67;100013.14;105037;1272;60517;-75
2022/07/12 09:27:14;;;;;;;6.30;1.40;;;;;;;31.95;25.33;100018.32;104798;1272;74587;-73
2022/07/12 09:30:04;;;;;;;3.30;0.60;;;;;;;31.83;25.38;100013.33;105116;1271;69648;-77
2022/07/12 09:36:14;;;;;;;4.40;0.80;;;;;;;32.92;24.15;100017.42;105308;1271;60584;-76
2022/07/12 09:39:02;;;;;;;4.90;0.70;;;;;;;33.36;23.40;100014.39;105228;1271;61521;-76
2022/07/12 09:41:55;;;;;;;4.10;0.70;;;;;;;33.63;23.06;100015.48;104851;1274;73098;-75
2022/07/12 09:44:43;;;;;;;4.00;0.50;;;;;;;33.88;22.76;100010.67;104817;1271;69309;-76
2022/07/12 09:47:32;;;;;;;3.70;0.50;;;;;;;34.22;22.69;100008.11;104935;1271;74345;-76
2022/07/12 09:50:20;;;;;;;5.00;0.60;;;;;;;34.40;22.47;100004.13;104829;1271;60543;-74
2022/07/12 09:53:10;;;;;;;3.40;0.50;;;;;;;34.23;22.83;100002.30;104922;1271;61020;-75
2022/07/12 09:56:03;;;;;;;2.80;0.40;;;;;;;34.32;22.71;99996.36;105113;1271;74615;-73
2022/07/12 09:58:57;;;;;;;3.10;0.60;;;;;;;33.93;23.88;99995.23;105005;1271;66504;-74
2022/07/12 10:01:46;;;;;;;5.00;0.70;;;;;;;33.90;23.67;99991.14;105219;1271;74347;-72
2022/07/12 10:04:36;;;;;;;4.40;0.70;;;;;;;34.04;23.38;99994.05;105021;1271;60541;-75
2022/07/12 10:07:24;;;;;;;2.90;0.50;;;;;;;34.16;23.06;99990.67;104736;1271;60726;-75
2022/07/12 10:10:13;;;;;;;3.40;0.40;;;;;;;33.63;22.69;99997.17;105063;1271;73287;-76
2022/07/12 10:13:02;;;;;;;2.70;0.50;;;;;;;33.40;23.63;99996.10;105171;1271;66297;-72
2022/07/12 10:15:57;;;;;;;3.00;0.60;;;;;;;33.71;23.55;99999.95;105342;1271;72592;-74
2022/07/12 10:18:45;;;;;;;4.60;0.60;;;;;;;33.49;24.16;100006.31;104989;1271;61039;-76
2022/07/12 10:21:39;;;;;;;6.90;3.00;;;;;;;33.48;23.39;100007.85;105082;1271;61032;-75
2022/07/12 10:24:54;;;;;;;6.80;1.00;;;;;;;33.08;23.65;100002.00;105324;1271;72087;-74
2022/07/12 10:27:49;;;;;;;5.70;2.10;;;;;;;32.83;23.75;100011.98;105085;1271;67033;-74
2022/07/12 10:30:47;;;;;;;4.10;0.70;;;;;;;32.71;23.47;100015.95;104944;1272;72892;-75
2022/07/12 10:33:36;;;;;;;3.50;0.80;;;;;;;32.74;23.95;100007.65;105092;1271;60499;-76
2022/07/12 10:36:24;;;;;;;4.00;0.60;;;;;;;32.90;23.51;100003.31;105065;1271;61908;-75
2022/07/12 10:39:13;;;;;;;4.30;0.80;;;;;;;32.68;24.08;100010.75;105044;1271;73748;-76
2022/07/12 10:42:07;;;;;;;2.90;0.60;;;;;;;32.55;24.37;100004.84;105087;1271;68002;-77
2022/07/12 10:45:14;;;;;;;3.40;0.80;;;;;;;32.87;23.78;100002.74;105349;1271;72063;-77
2022/07/12 10:48:13;;;;;;;3.20;0.60;;;;;;;33.00;23.45;99999.27;105236;1271;60475;-77
2022/07/12 10:51:22;;;;;;;3.80;0.80;;;;;;;33.36;22.77;100000.77;105344;1271;61715;-77
2022/07/12 10:54:21;;;;;;;2.70;0.50;;;;;;;33.92;21.57;99978.55;105011;1271;75776;-74
2022/07/12 10:57:10;;;;;;;3.80;0.80;;;;;;;34.28;21.50;99973.11;105100;1271;69292;-76
2022/07/12 10:59:59;;;;;;;3.60;0.70;;;;;;;34.45;20.83;99978.55;105286;1271;72888;-76
2022/07/12 11:02:47;;;;;;;3.90;0.70;;;;;;;34.64;20.75;99973.23;105138;1271;60360;-75
2022/07/12 11:05:35;;;;;;;4.50;0.60;;;;;;;34.75;21.16;99983.02;105180;1271;61066;-76
2022/07/12 11:08:23;;;;;;;2.50;0.60;;;;;;;34.60;20.81;99977.99;105271;1271;72976;-75
2022/07/12 11:11:11;;;;;;;2.80;0.60;;;;;;;34.78;20.98;99979.20;105216;1271;66156;-78
2022/07/12 11:14:01;;;;;;;3.30;0.60;;;;;;;34.69;20.44;99983.05;105017;1271;74335;-77
2022/07/12 11:16:52;;;;;;;4.90;0.70;;;;;;;33.88;20.89;99982.01;105203;1271;60450;-75
2022/07/12 11:19:40;;;;;;;3.00;0.70;;;;;;;33.03;22.58;99981.82;105101;1271;60314;-77
2022/07/12 11:22:28;;;;;;;3.30;0.70;;;;;;;32.38;23.12;99972.14;104875;1271;74656;-73
2022/07/12 11:25:16;;;;;;;3.50;0.70;;;;;;;31.64;23.68;99979.27;105306;1271;69273;-73
2022/07/12 11:28:04;;;;;;;7.90;2.90;;;;;;;30.79;24.48;99976.02;104928;1271;72602;-76
2022/07/12 11:30:53;;;;;;;5.80;1.20;;;;;;;30.21;25.48;99979.42;104902;1271;60525;-74
2022/07/12 11:33:45;;;;;;;4.60;1.30;;;;;;;29.31;26.22;99994.23;105082;1271;61748;-75
2022/07/12 11:36:37;;;;;;;5.30;0.90;;;;;;;28.65;27.47;99985.36;105070;1271;73913;-75
2022/07/12 11:39:35;;;;;;;4.20;0.90;;;;;;;28.18;27.91;99987.10;105192;1271;68698;-72
2022/07/12 11:42:24;;;;;;;5.20;1.30;;;;;;;27.84;29.01;99988.36;104922;1273;74129;-74
2022/07/12 11:45:14;;;;;;;5.20;2.10;;;;;;;27.44;28.97;99987.03;105124;1271;60595;-73
2022/07/12 11:48:05;;;;;;;8.70;2.50;;;;;;;26.99;30.14;99978.04;105085;1272;60559;-75
2022/07/12 11:50:54;;;;;;;5.50;1.30;;;;;;;26.60;30.73;99980.38;105128;1271;74930;-72
2022/07/12 11:53:43;;;;;;;4.70;1.20;;;;;;;26.10;31.58;99980.90;104937;1271;67792;-73
2022/07/12 11:56:31;;;;;;;6.90;0.90;;;;;;;25.43;32.54;99979.52;104949;1271;71286;-75
2022/07/12 11:59:22;;;;;;;5.40;1.60;;;;;;;25.15;34.08;99990.36;105141;1271;60497;-75
2022/07/12 12:02:15;;;;;;;4.10;0.90;;;;;;;24.84;34.39;99996.94;105157;1271;60454;-73
2022/07/12 12:05:04;;;;;;;3.40;0.80;;;;;;;24.43;34.37;99989.52;105031;1272;72592;-76
2022/07/12 12:07:53;;;;;;;5.00;0.90;;;;;;;24.20;35.38;99984.71;105328;1271;68034;-75
2022/07/12 12:10:54;;;;;;;5.60;1.50;;;;;;;24.11;36.53;99986.02;105203;1271;73571;-75
2022/07/12 12:13:42;;;;;;;7.30;0.90;;;;;;;24.05;36.84;99990.11;105341;1271;60526;-76
2022/07/12 12:16:34;;;;;;;3.90;0.90;;;;;;;23.84;37.07;99983.27;105228;1274;61564;-74
2022/07/12 12:19:22;;;;;;;4.50;1.00;;;;;;;23.74;37.60;99981.55;105084;1274;74065;-75
2022/07/12 12:22:35;;;;;;;3.70;0.90;;;;;;;23.68;37.21;99982.59;105049;1274;66777;-75
2022/07/12 12:25:24;;;;;;;4.00;0.80;;;;;;;23.68;37.16;99990.54;105315;1274;70573;-74
2022/07/12 12:28:12;;;;;;;4.30;0.80;;;;;;;23.61;37.33;99985.23;105066;1274;60337;-75
2022/07/12 12:31:02;;;;;;;4.50;1.10;;;;;;;23.56;37.52;99986.00;104969;1274;60562;-73
2022/07/12 12:33:56;;;;;;;3.60;0.90;;;;;;;23.60;37.79;99982.21;104934;1275;75537;-74
2022/07/12 12:36:45;;;;;;;4.40;1.00;;;;;;;23.65;37.84;99980.52;104952;1274;67353;-76
2022/07/12 12:39:33;;;;;;;5.30;1.10;;;;;;;23.51;37.19;99982.27;104921;1274;74813;-76
2022/07/12 12:42:24;;;;;;;3.80;0.90;;;;;;;23.44;37.57;99979.44;105232;1273;60510;-74
2022/07/12 12:45:24;;;;;;;5.30;1.10;;;;;;;23.35;37.74;99975.10;105346;1274;62073;-73
2022/07/12 12:48:19;;;;;;;5.50;1.80;;;;;;;23.21;37.94;99975.45;105224;1274;74032;-76
2022/07/12 12:51:11;;;;;;;4.20;0.90;;;;;;;23.23;38.16;99973.07;104960;1274;67106;-74
2022/07/12 12:53:59;;;;;;;6.50;1.30;;;;;;;23.24;37.84;99978.97;105184;1274;72802;-77
2022/07/12 12:56:47;;;;;;;5.60;1.20;;;;;;;23.23;38.32;99989.35;105264;1274;60472;-76
2022/07/12 12:59:37;;;;;;;5.50;0.90;;;;;;;23.11;37.53;99984.50;105227;1274;61491;-76
2022/07/12 13:02:26;;;;;;;3.90;0.90;;;;;;;23.05;37.78;99984.71;105036;1274;74075;-75
2022/07/12 13:05:14;;;;;;;7.20;1.00;;;;;;;23.04;38.12;99983.66;105077;1274;68085;-76
2022/07/12 13:08:04;;;;;;;3.80;1.00;;;;;;;22.98;38.93;99979.55;105118;1274;74364;-75